createdAt,value
2018-11-12T00:01:13.820Z,10.71
2018-11-12T00:03:41.564Z,10.63
2018-11-12T00:06:09.268Z,10.63
2018-11-12T00:08:37.004Z,10.57
2018-11-12T00:11:05.096Z,10.49
2018-11-12T00:13:32.780Z,10.43
2018-11-12T00:16:00.469Z,10.36
2018-11-12T00:18:28.158Z,10.32
2018-11-12T00:20:55.880Z,10.23
2018-11-12T00:23:24.237Z,10.23
2018-11-12T00:25:51.996Z,10.15
2018-11-12T00:28:19.717Z,10.12
2018-11-12T00:30:47.438Z,9.93
2018-11-12T00:33:15.142Z,9.91
2018-11-12T00:35:42.805Z,9.93
2018-11-12T00:38:10.525Z,10.01
2018-11-12T00:40:38.268Z,9.97
2018-11-12T00:43:05.976Z,9.88
2018-11-12T00:45:33.632Z,9.75
2018-11-12T00:48:01.277Z,9.66
2018-11-12T00:50:28.940Z,9.57
2018-11-12T00:52:56.600Z,9.55
2018-11-12T00:55:24.290Z,9.46
2018-11-12T00:57:51.972Z,9.49
2018-11-12T01:00:20.052Z,9.62
2018-11-12T01:02:48.978Z,9.71
2018-11-12T01:05:17.462Z,9.71
2018-11-12T01:07:45.763Z,9.69
2018-11-12T01:10:14.408Z,9.71
2018-11-12T01:12:42.714Z,9.73
2018-11-12T01:15:12.006Z,9.66
2018-11-12T01:17:40.308Z,9.61
2018-11-12T01:20:09.400Z,9.65
2018-11-12T01:22:37.062Z,9.54
2018-11-12T01:25:05.273Z,9.55
2018-11-12T01:27:32.950Z,9.46
2018-11-12T01:30:00.633Z,9.39
2018-11-12T01:32:28.524Z,9.35
2018-11-12T01:34:56.145Z,9.36
2018-11-12T01:37:23.825Z,9.32
2018-11-12T01:39:51.544Z,9.28
2018-11-12T01:42:19.273Z,9.44
2018-11-12T01:44:47.004Z,9.42
2018-11-12T01:47:14.745Z,9.47
2018-11-12T01:49:42.433Z,9.44
2018-11-12T01:52:10.148Z,9.45
2018-11-12T01:54:37.861Z,9.30
2018-11-12T01:57:05.586Z,9.38
2018-11-12T01:59:33.216Z,9.37
2018-11-12T02:02:00.882Z,9.39
2018-11-12T02:04:28.562Z,9.36
2018-11-12T02:06:56.250Z,9.42
2018-11-12T02:09:23.908Z,9.47
2018-11-12T02:11:51.633Z,9.46
2018-11-12T02:14:19.369Z,9.49
2018-11-12T02:16:47.111Z,9.48
2018-11-12T02:19:14.794Z,9.47
2018-11-12T02:21:42.521Z,9.47
2018-11-12T02:24:10.280Z,9.49
2018-11-12T02:26:37.998Z,9.44
2018-11-12T02:29:05.897Z,9.48
2018-11-12T02:31:33.554Z,9.48
2018-11-12T02:34:01.265Z,9.53
2018-11-12T02:36:29.018Z,9.54
2018-11-12T02:38:56.756Z,9.52
2018-11-12T02:41:24.472Z,9.53
2018-11-12T02:43:52.208Z,9.47
2018-11-12T02:46:19.877Z,9.39
2018-11-12T02:48:47.657Z,9.40
2018-11-12T02:51:15.409Z,9.34
2018-11-12T02:53:43.127Z,9.34
2018-11-12T02:56:12.784Z,9.22
2018-11-12T02:58:40.829Z,9.21
2018-11-12T03:01:08.892Z,9.25
2018-11-12T03:03:36.565Z,9.21
2018-11-12T03:06:04.293Z,9.16
2018-11-12T03:08:31.993Z,9.15
2018-11-12T03:10:59.766Z,9.13
2018-11-12T03:13:27.466Z,9.16
2018-11-12T03:15:55.201Z,9.17
2018-11-12T03:18:22.949Z,9.12
2018-11-12T03:20:50.665Z,9.13
2018-11-12T03:23:18.431Z,9.16
2018-11-12T03:25:46.176Z,9.16
2018-11-12T03:28:13.787Z,9.21
2018-11-12T03:30:41.540Z,9.17
2018-11-12T03:33:09.250Z,9.14
2018-11-12T03:35:36.956Z,9.25
2018-11-12T03:38:04.720Z,9.15
2018-11-12T03:40:32.484Z,9.18
2018-11-12T03:43:00.117Z,9.17
2018-11-12T03:45:27.788Z,9.24
2018-11-12T03:47:55.525Z,9.29
2018-11-12T03:50:24.265Z,9.29
2018-11-12T03:52:51.964Z,9.33
2018-11-12T03:55:20.723Z,9.39
2018-11-12T03:57:48.419Z,9.41
2018-11-12T04:00:20.238Z,9.45
2018-11-12T04:02:47.993Z,9.48
2018-11-12T04:05:15.817Z,9.51
2018-11-12T04:07:43.608Z,9.54
2018-11-12T04:10:18.669Z,9.54
2018-11-12T04:12:46.400Z,9.60
2018-11-12T04:15:15.392Z,9.66
2018-11-12T04:17:43.089Z,9.70
2018-11-12T04:20:12.564Z,9.70
2018-11-12T04:22:41.060Z,9.80
2018-11-12T04:25:10.568Z,9.79
2018-11-12T04:27:38.292Z,9.84
2018-11-12T04:30:10.935Z,9.89
2018-11-12T04:32:38.668Z,9.92
2018-11-12T04:35:07.040Z,9.92
2018-11-12T04:37:34.723Z,9.97
2018-11-12T04:40:02.549Z,9.95
2018-11-12T04:42:30.246Z,9.98
2018-11-12T04:44:57.973Z,10.07
2018-11-12T04:47:25.641Z,10.07
2018-11-12T04:49:53.666Z,10.06
2018-11-12T04:52:21.393Z,10.02
2018-11-12T04:54:49.085Z,10.08
2018-11-12T04:57:16.819Z,10.09
2018-11-12T04:59:44.493Z,10.04
2018-11-12T05:02:12.289Z,10.10
2018-11-12T05:04:39.990Z,10.10
2018-11-12T05:07:07.726Z,10.11
2018-11-12T05:09:35.366Z,10.11
2018-11-12T05:12:03.209Z,10.14
2018-11-12T05:14:30.903Z,10.19
2018-11-12T05:16:58.720Z,10.24
2018-11-12T05:19:26.423Z,10.24
2018-11-12T05:21:54.554Z,10.27
2018-11-12T05:24:22.245Z,10.24
2018-11-12T05:26:49.996Z,10.30
2018-11-12T05:29:17.652Z,10.30
2018-11-12T05:31:45.389Z,10.28
2018-11-12T05:34:13.144Z,10.30
2018-11-12T05:36:40.773Z,10.34
2018-11-12T05:39:11.332Z,10.32
2018-11-12T05:41:39.146Z,10.33
2018-11-12T05:44:07.216Z,10.33
2018-11-12T05:46:34.902Z,10.35
2018-11-12T05:49:02.913Z,10.29
2018-11-12T05:51:30.667Z,10.38
2018-11-12T05:53:58.425Z,10.34
2018-11-12T05:56:27.295Z,10.38
2018-11-12T05:58:55.063Z,10.44
2018-11-12T06:01:22.832Z,10.41
2018-11-12T06:03:50.909Z,10.42
2018-11-12T06:06:18.673Z,10.45
2018-11-12T06:08:46.737Z,10.44
2018-11-12T06:11:14.630Z,10.46
2018-11-12T06:13:42.392Z,10.49
2018-11-12T06:16:10.341Z,10.53
2018-11-12T06:18:38.373Z,10.55
2018-11-12T06:21:06.068Z,10.57
2018-11-12T06:23:33.741Z,10.57
2018-11-12T06:26:01.534Z,10.60
2018-11-12T06:28:29.208Z,10.61
2018-11-12T06:30:57.103Z,10.67
2018-11-12T06:33:25.045Z,10.69
2018-11-12T06:35:52.717Z,10.66
2018-11-12T06:38:21.132Z,10.73
2018-11-12T06:40:48.844Z,10.69
2018-11-12T06:43:17.094Z,10.71
2018-11-12T06:45:44.811Z,10.73
2018-11-12T06:48:12.748Z,10.74
2018-11-12T06:50:41.358Z,10.74
2018-11-12T06:53:09.235Z,10.73
2018-11-12T06:55:36.846Z,10.82
2018-11-12T06:58:04.985Z,10.78
2018-11-12T07:00:33.992Z,10.82
2018-11-12T07:03:02.306Z,10.81
2018-11-12T07:05:30.873Z,10.86
2018-11-12T07:07:58.868Z,10.87
2018-11-12T07:10:28.166Z,10.91
2018-11-12T07:12:57.145Z,10.96
2018-11-12T07:15:26.217Z,10.98
2018-11-12T07:17:54.432Z,10.95
2018-11-12T07:20:24.612Z,11.05
2018-11-12T07:22:52.725Z,11.06
2018-11-12T07:25:22.840Z,11.09
2018-11-12T07:27:50.605Z,11.13
2018-11-12T07:30:20.971Z,11.15
2018-11-12T07:32:50.047Z,11.18
2018-11-12T07:35:18.437Z,11.22
2018-11-12T07:37:48.349Z,11.25
2018-11-12T07:40:16.709Z,11.28
2018-11-12T07:42:44.485Z,11.31
2018-11-12T07:45:13.825Z,11.31
2018-11-12T07:47:42.506Z,11.38
2018-11-12T07:50:12.297Z,11.37
2018-11-12T07:52:43.324Z,11.44
2018-11-12T07:55:13.573Z,11.48
2018-11-12T07:57:41.776Z,11.49
2018-11-12T08:00:13.233Z,11.49
2018-11-12T08:02:42.145Z,11.60
2018-11-12T08:05:10.501Z,11.60
2018-11-12T08:07:38.474Z,11.63
2018-11-12T08:10:08.601Z,11.65
2018-11-12T08:12:36.382Z,11.71
2018-11-12T08:15:05.622Z,11.75
2018-11-12T08:17:33.444Z,11.79
2018-11-12T08:20:01.258Z,11.85
2018-11-12T08:22:29.018Z,11.88
2018-11-12T08:24:56.689Z,11.91
2018-11-12T08:27:24.568Z,12.00
2018-11-12T08:29:52.219Z,12.08
2018-11-12T08:32:19.889Z,12.13
2018-11-12T08:34:49.932Z,12.19
2018-11-12T08:37:17.905Z,12.29
2018-11-12T08:39:45.744Z,12.28
2018-11-12T08:42:13.245Z,12.34
2018-11-12T08:44:40.969Z,12.40
2018-11-12T08:47:08.680Z,12.47
2018-11-12T08:49:36.526Z,12.47
2018-11-12T08:52:04.514Z,12.47
2018-11-12T08:54:32.308Z,12.53
2018-11-12T08:57:04.381Z,12.54
2018-11-12T08:59:32.186Z,12.63
2018-11-12T09:01:59.960Z,12.58
2018-11-12T09:04:27.629Z,12.61
2018-11-12T09:06:55.372Z,12.65
2018-11-12T09:09:23.076Z,12.69
2018-11-12T09:11:50.813Z,12.73
2018-11-12T09:14:18.528Z,12.72
2018-11-12T09:16:46.219Z,12.75
2018-11-12T09:19:14.100Z,12.82
2018-11-12T09:21:41.809Z,12.81
2018-11-12T09:24:09.632Z,12.83
2018-11-12T09:26:37.372Z,12.87
2018-11-12T09:29:05.157Z,12.84
2018-11-12T09:31:32.968Z,12.89
2018-11-12T09:34:01.068Z,12.82
2018-11-12T09:36:28.837Z,12.94
2018-11-12T09:41:24.328Z,12.97
2018-11-12T09:43:51.904Z,13.07
2018-11-12T09:46:19.586Z,13.07
2018-11-12T09:48:47.666Z,13.15
2018-11-12T09:51:15.308Z,13.23
2018-11-12T09:53:43.144Z,13.24
2018-11-12T09:56:10.857Z,13.26
2018-11-12T09:58:38.521Z,13.36
2018-11-12T10:01:06.519Z,13.41
2018-11-12T10:03:35.160Z,13.54
2018-11-12T10:06:02.801Z,13.58
2018-11-12T10:08:35.337Z,13.66
2018-11-12T10:11:04.437Z,13.72
2018-11-12T10:13:31.790Z,13.75
2018-11-12T10:15:59.997Z,13.82
2018-11-12T10:18:25.585Z,13.83
2018-11-12T10:20:53.304Z,13.90
2018-11-12T10:23:21.592Z,13.93
2018-11-12T10:25:49.317Z,14.03
2018-11-12T10:28:18.225Z,14.03
2018-11-12T10:30:45.895Z,14.06
2018-11-12T10:33:13.617Z,14.14
2018-11-12T10:35:41.317Z,14.18
2018-11-12T10:38:09.414Z,14.25
2018-11-12T10:40:37.197Z,14.31
2018-11-12T10:43:07.650Z,14.30
2018-11-12T10:45:35.420Z,14.42
2018-11-12T10:48:03.318Z,14.47
2018-11-12T10:50:30.894Z,14.46
2018-11-12T10:52:58.620Z,14.53
2018-11-12T10:55:26.455Z,14.54
2018-11-12T10:57:54.265Z,14.53
2018-11-12T11:00:30.857Z,14.61
2018-11-12T11:03:07.960Z,14.62
2018-11-12T11:05:36.708Z,14.66
2018-11-12T11:08:04.687Z,14.66
2018-11-12T11:10:32.331Z,14.72
2018-11-12T11:13:01.225Z,14.75
2018-11-12T11:15:29.562Z,14.80
2018-11-12T11:17:57.265Z,14.84
2018-11-12T11:20:25.065Z,14.89
2018-11-12T11:22:54.006Z,14.96
2018-11-12T11:25:21.717Z,15.01
2018-11-12T11:27:49.472Z,14.98
2018-11-12T11:30:17.549Z,15.09
2018-11-12T11:32:45.468Z,15.07
2018-11-12T11:35:14.410Z,15.20
2018-11-12T11:37:42.150Z,15.25
2018-11-12T11:40:14.202Z,15.26
2018-11-12T11:42:42.161Z,15.30
2018-11-12T11:45:11.261Z,15.32
2018-11-12T11:47:39.810Z,15.33
2018-11-12T11:50:09.723Z,15.37
2018-11-12T11:52:37.392Z,15.22
2018-11-12T11:55:08.143Z,15.31
2018-11-12T11:57:35.992Z,15.25
2018-11-12T12:00:08.778Z,15.32
2018-11-12T12:02:36.436Z,15.33
2018-11-12T12:05:06.021Z,15.33
2018-11-12T12:07:34.057Z,15.33
2018-11-12T12:10:01.840Z,15.39
2018-11-12T12:12:29.568Z,15.28
2018-11-12T12:14:57.236Z,15.29
2018-11-12T12:17:24.929Z,15.31
2018-11-12T12:19:52.764Z,15.26
2018-11-12T12:22:20.467Z,15.21
2018-11-12T12:24:48.309Z,15.20
2018-11-12T12:27:15.928Z,15.21
2018-11-12T12:29:43.805Z,15.22
2018-11-12T12:32:11.537Z,15.23
2018-11-12T12:34:39.313Z,15.20
2018-11-12T12:37:06.964Z,15.23
2018-11-12T12:39:34.658Z,15.27
2018-11-12T12:42:02.306Z,15.27
2018-11-12T12:44:31.670Z,15.26
2018-11-12T12:46:59.293Z,15.26
2018-11-12T12:49:27.155Z,15.29
2018-11-12T12:51:54.906Z,15.30
2018-11-12T12:54:22.651Z,15.37
2018-11-12T12:56:50.336Z,15.46
2018-11-12T12:59:18.053Z,15.49
2018-11-12T13:01:45.785Z,15.53
2018-11-12T13:04:13.436Z,15.48
2018-11-12T13:06:41.236Z,15.54
2018-11-12T13:09:09.576Z,15.63
2018-11-12T13:11:37.604Z,15.65
2018-11-12T13:14:06.063Z,15.75
2018-11-12T13:16:33.548Z,15.80
2018-11-12T13:19:01.257Z,15.89
2018-11-12T13:21:29.067Z,15.98
2018-11-12T13:23:56.663Z,16.04
2018-11-12T13:26:24.318Z,15.99
2018-11-12T13:28:52.050Z,16.00
2018-11-12T13:31:19.820Z,16.05
2018-11-12T13:33:47.545Z,16.02
2018-11-12T13:36:15.233Z,16.04
2018-11-12T13:38:42.907Z,16.06
2018-11-12T13:41:10.586Z,16.06
2018-11-12T13:43:38.266Z,16.11
2018-11-12T13:46:05.926Z,16.10
2018-11-12T13:48:33.613Z,16.09
2018-11-12T13:51:01.369Z,16.19
2018-11-12T13:53:29.120Z,16.25
2018-11-12T13:55:56.850Z,16.29
2018-11-12T13:58:24.549Z,16.28
2018-11-12T14:00:52.296Z,16.23
2018-11-12T14:03:20.065Z,16.22
2018-11-12T14:05:47.806Z,16.24
2018-11-12T14:08:15.650Z,16.22
2018-11-12T14:10:43.429Z,16.23
2018-11-12T14:13:11.117Z,16.25
2018-11-12T14:15:38.778Z,16.21
2018-11-12T14:18:06.592Z,16.16
2018-11-12T14:20:34.490Z,16.15
2018-11-12T14:23:02.050Z,16.12
2018-11-12T14:25:30.381Z,16.10
2018-11-12T14:27:58.266Z,16.13
2018-11-12T14:30:27.409Z,16.11
2018-11-12T14:32:55.149Z,16.11
2018-11-12T14:35:22.945Z,16.15
2018-11-12T14:37:50.663Z,16.13
2018-11-12T14:40:19.918Z,16.13
2018-11-12T14:42:47.657Z,16.13
2018-11-12T14:45:17.793Z,16.08
2018-11-12T14:47:45.876Z,16.08
2018-11-12T14:50:13.668Z,16.08
2018-11-12T14:52:41.349Z,16.04
2018-11-12T14:55:10.847Z,16.07
2018-11-12T14:57:38.600Z,16.06
2018-11-12T15:00:12.862Z,16.04
2018-11-12T15:02:40.679Z,16.03
2018-11-12T15:05:09.226Z,15.99
2018-11-12T15:07:36.966Z,15.89
2018-11-12T15:10:07.106Z,15.89
2018-11-12T15:12:34.893Z,15.84
2018-11-12T15:15:02.979Z,15.87
2018-11-12T15:17:30.712Z,15.80
2018-11-12T15:19:58.968Z,15.81
2018-11-12T15:22:28.108Z,15.79
2018-11-12T15:24:55.817Z,15.76
2018-11-12T15:27:23.448Z,15.63
2018-11-12T15:29:51.126Z,15.60
2018-11-12T15:32:18.834Z,15.59
2018-11-12T15:34:46.597Z,15.60
2018-11-12T15:37:14.467Z,15.54
2018-11-12T15:39:42.804Z,15.45
2018-11-12T15:42:10.478Z,15.36
2018-11-12T15:44:38.240Z,15.40
2018-11-12T15:47:05.921Z,15.34
2018-11-12T15:49:33.749Z,15.25
2018-11-12T15:52:01.543Z,15.27
2018-11-12T15:54:29.257Z,15.29
2018-11-12T15:56:56.963Z,15.25
2018-11-12T15:59:24.671Z,15.20
2018-11-12T16:01:52.360Z,15.26
2018-11-12T16:04:20.117Z,15.21
2018-11-12T16:06:47.896Z,15.18
2018-11-12T16:09:16.016Z,15.20
2018-11-12T16:11:44.372Z,15.22
2018-11-12T16:14:12.045Z,15.16
2018-11-12T16:16:39.833Z,15.14
2018-11-12T16:19:08.589Z,15.14
2018-11-12T16:21:36.289Z,15.13
2018-11-12T16:24:04.344Z,15.13
2018-11-12T16:26:32.152Z,15.12
2018-11-12T16:28:59.880Z,15.07
2018-11-12T16:31:27.783Z,14.99
2018-11-12T16:33:55.581Z,15.00
2018-11-12T16:36:23.426Z,14.93
2018-11-12T16:38:51.774Z,14.84
2018-11-12T16:41:19.496Z,14.78
2018-11-12T16:43:47.158Z,14.75
2018-11-12T16:46:14.916Z,14.76
2018-11-12T16:48:45.219Z,14.79
2018-11-12T16:51:12.996Z,14.77
2018-11-12T16:53:40.717Z,14.79
2018-11-12T16:56:08.473Z,14.84
2018-11-12T16:58:36.209Z,14.92
2018-11-12T17:01:04.230Z,14.94
2018-11-12T17:03:31.909Z,14.81
2018-11-12T17:06:00.321Z,14.74
2018-11-12T17:08:29.217Z,14.64
2018-11-12T17:10:58.892Z,14.57
2018-11-12T17:13:26.686Z,14.51
2018-11-12T17:15:54.679Z,14.51
2018-11-12T17:18:23.133Z,14.42
2018-11-12T17:20:51.364Z,14.36
2018-11-12T17:23:19.544Z,14.21
2018-11-12T17:25:47.879Z,14.06
2018-11-12T17:28:16.593Z,14.08
2018-11-12T17:30:45.443Z,14.02
2018-11-12T17:33:13.469Z,13.99
2018-11-12T17:35:41.233Z,13.98
2018-11-12T17:38:08.912Z,13.94
2018-11-12T17:40:36.660Z,13.87
2018-11-12T17:43:04.888Z,13.86
2018-11-12T17:45:32.620Z,13.86
2018-11-12T17:48:00.391Z,13.87
2018-11-12T17:50:28.134Z,13.84
2018-11-12T17:52:55.884Z,13.81
2018-11-12T17:55:23.576Z,13.83
2018-11-12T17:57:51.317Z,13.80
2018-11-12T18:00:22.877Z,13.80
2018-11-12T18:02:50.641Z,13.77
2018-11-12T18:05:18.514Z,13.79
2018-11-12T18:07:46.558Z,13.76
2018-11-12T18:10:15.157Z,13.71
2018-11-12T18:12:43.224Z,13.74
2018-11-12T18:15:13.668Z,13.72
2018-11-12T18:17:41.696Z,13.68
2018-11-12T18:20:13.440Z,13.65
2018-11-12T18:22:41.381Z,13.63
2018-11-12T18:25:10.217Z,13.58
2018-11-12T18:27:38.223Z,13.59
2018-11-12T18:30:11.542Z,13.59
2018-11-12T18:32:39.260Z,13.56
2018-11-12T18:35:07.311Z,13.56
2018-11-12T18:37:35.360Z,13.59
2018-11-12T18:40:03.656Z,13.56
2018-11-12T18:42:31.489Z,13.57
2018-11-12T18:44:59.285Z,13.54
2018-11-12T18:47:27.213Z,13.52
2018-11-12T18:49:55.229Z,13.49
2018-11-12T18:52:22.945Z,13.51
2018-11-12T18:54:50.597Z,13.55
2018-11-12T18:57:18.633Z,13.53
2018-11-12T18:59:46.297Z,13.49
2018-11-12T19:02:14.012Z,13.53
2018-11-12T19:04:41.733Z,13.57
2018-11-12T19:07:10.151Z,13.54
2018-11-12T19:09:37.929Z,13.55
2018-11-12T19:12:05.716Z,13.54
2018-11-12T19:14:33.447Z,13.53
2018-11-12T19:17:01.169Z,13.56
2018-11-12T19:19:28.860Z,13.59
2018-11-12T19:21:56.546Z,13.61
2018-11-12T19:24:24.221Z,13.61
2018-11-12T19:26:51.982Z,13.59
2018-11-12T19:29:19.754Z,13.60
2018-11-12T19:31:47.457Z,13.62
2018-11-12T19:34:15.460Z,13.56
2018-11-12T19:36:43.720Z,13.58
2018-11-12T19:39:11.426Z,13.62
2018-11-12T19:41:39.319Z,13.63
2018-11-12T19:44:07.084Z,13.59
2018-11-12T19:46:34.782Z,13.59
2018-11-12T19:49:02.482Z,13.59
2018-11-12T19:51:30.260Z,13.61
2018-11-12T19:53:57.845Z,13.62
2018-11-12T19:56:25.866Z,13.62
2018-11-12T19:58:53.775Z,13.65
2018-11-12T20:01:25.104Z,13.63
2018-11-12T20:03:52.882Z,13.67
2018-11-12T20:06:20.593Z,13.61
2018-11-12T20:08:48.341Z,13.57
2018-11-12T20:11:16.616Z,13.61
2018-11-12T20:13:44.312Z,13.65
2018-11-12T20:16:12.004Z,13.63
2018-11-12T20:18:39.797Z,13.68
2018-11-12T20:21:07.434Z,13.61
2018-11-12T20:23:35.218Z,13.62
2018-11-12T20:26:03.011Z,13.63
2018-11-12T20:28:31.101Z,13.64
2018-11-12T20:30:58.856Z,13.63
2018-11-12T20:33:26.541Z,13.61
2018-11-12T20:35:54.230Z,13.62
2018-11-12T20:38:22.321Z,13.64
2018-11-12T20:40:50.047Z,13.63
2018-11-12T20:43:17.746Z,13.64
2018-11-12T20:45:45.393Z,13.65
2018-11-12T20:48:13.255Z,13.66
2018-11-12T20:50:40.905Z,13.60
2018-11-12T20:53:08.655Z,13.61
2018-11-12T20:55:36.392Z,13.59
2018-11-12T20:58:04.275Z,13.59
2018-11-12T21:00:32.034Z,13.61
2018-11-12T21:03:00.132Z,13.60
2018-11-12T21:05:29.085Z,13.63
2018-11-12T21:07:57.022Z,13.62
2018-11-12T21:10:24.751Z,13.59
2018-11-12T21:12:52.796Z,13.60
2018-11-12T21:15:22.069Z,13.60
2018-11-12T21:17:50.230Z,13.58
2018-11-12T21:20:20.157Z,13.58
2018-11-12T21:22:47.816Z,13.58
2018-11-12T21:25:16.917Z,13.57
2018-11-12T21:27:44.684Z,13.62
2018-11-12T21:30:15.277Z,13.62
2018-11-12T21:32:43.299Z,13.60
2018-11-12T21:35:11.374Z,13.62
2018-11-12T21:37:39.093Z,13.60
2018-11-12T21:40:11.352Z,13.59
2018-11-12T21:42:39.192Z,13.58
2018-11-12T21:45:09.097Z,13.59
2018-11-12T21:47:37.157Z,13.58
2018-11-12T21:50:07.577Z,13.59
2018-11-12T21:52:35.261Z,13.59
2018-11-12T21:55:03.444Z,13.60
2018-11-12T21:57:31.445Z,13.60
2018-11-12T21:59:59.155Z,13.61
2018-11-12T22:02:26.874Z,13.65
2018-11-12T22:04:54.618Z,13.62
2018-11-12T22:07:23.499Z,13.62
2018-11-12T22:09:51.344Z,13.66
2018-11-12T22:12:19.105Z,13.65
2018-11-12T22:14:47.372Z,13.64
2018-11-12T22:17:14.997Z,13.63
2018-11-12T22:19:42.913Z,13.66
2018-11-12T22:22:11.128Z,13.64
2018-11-12T22:24:38.837Z,13.64
2018-11-12T22:27:06.561Z,13.61
2018-11-12T22:29:34.612Z,13.61
2018-11-12T22:32:02.293Z,13.62
2018-11-12T22:34:30.013Z,13.62
2018-11-12T22:36:57.685Z,13.62
2018-11-12T22:39:25.404Z,13.64
2018-11-12T22:41:53.168Z,13.61
2018-11-12T22:44:21.313Z,13.63
2018-11-12T22:46:49.522Z,13.62
2018-11-12T22:49:17.180Z,13.63
2018-11-12T22:51:44.962Z,13.63
2018-11-12T22:54:12.610Z,13.62
2018-11-12T22:56:40.332Z,13.62
2018-11-12T22:59:08.087Z,13.63
2018-11-12T23:01:35.725Z,13.63
2018-11-12T23:04:04.251Z,13.64
2018-11-12T23:06:32.392Z,13.65
2018-11-12T23:09:00.133Z,13.65
2018-11-12T23:11:27.772Z,13.64
2018-11-12T23:13:55.493Z,13.60
2018-11-12T23:16:23.222Z,13.64
2018-11-12T23:18:50.985Z,13.63
2018-11-12T23:21:19.076Z,13.65
2018-11-12T23:23:46.713Z,13.64
2018-11-12T23:26:14.500Z,13.64
2018-11-12T23:28:42.150Z,13.63
2018-11-12T23:31:09.925Z,13.59
2018-11-12T23:33:37.568Z,13.61
2018-11-12T23:36:05.772Z,13.59
2018-11-12T23:38:33.576Z,13.60
2018-11-12T23:41:01.325Z,13.59
2018-11-12T23:43:29.026Z,13.60
2018-11-12T23:45:56.708Z,13.55
2018-11-12T23:48:24.324Z,13.57
2018-11-12T23:50:52.077Z,13.56
2018-11-12T23:53:19.781Z,13.58
2018-11-12T23:55:47.445Z,13.55
2018-11-12T23:58:15.601Z,13.52
